首页
METAR-TAF:

METAR-TAF

机场 :

Hayden, 科羅拉多州, 美国

纬度: 40-29N, 经度: 107-13W, 海拔: 2012米

当前天气观测

该预报发布于28分钟前的00:56 UTC
风速5节,风向西
温度 22°C
湿度 41%
气压 1022 hPa
能見度: 16.1公里
散云层高于11000英尺

METAR: KHDN 130056Z AUTO 26005KT 10SM SCT110 22/08 A3018 RMK AO2 PK WND 23026/0027 TSB2359E14B22E37RAB38E52 SLP148 P0000 T02220078

时间: 19:24 (01:24 UTC)

预报

该预报发布于2小时和4分钟前的23:20 UTC
预报有效从13日的 00点(UTC)到 13日的 24点(UTC)
风速7节,风向北转西北
能見度: 10公里
少量云层高于8000英尺
散云层高于9000英尺
多云层高于11000英尺
附近有阵雨
从 13日的 0200点(UTC)
风速4节,风向多变
能見度: 10公里
少量云层高于11000英尺
从 13日的 0500点(UTC)
风速9节,风向
能見度: 10公里
天空无云
从 13日的 1900点(UTC)
风速10节,风向西,有时为20节阵风
能見度: 10公里
散云层高于25000英尺

TAF: KHDN 122320Z 1300/1324 34007KT P6SM VCSH FEW080 SCT090 BKN110 FM130200 VRB04KT P6SM FEW110 FM130500 10009KT P6SM SKC FM131900 27010G20KT P6SM SCT250

超过4000个机场的气象观测和天气预报(METAR&TAF报告)。

可查询的气象台以黄色和红色小点在地图上表示。

将鼠标移到小点上方,可查看气象台名称。

然后点击查看天气观测和预报。

如需切换地图:点击带黑十字的绿色按钮放大地图;点击带横线的绿色按钮缩小地图;或者点击绿色箭头查看邻近地区的地图。


METAR-TAF: